createdAt,value
2019-03-22T00:01:16.058Z,8.08
2019-03-22T00:03:50.220Z,8.09
2019-03-22T00:06:21.308Z,8.13
2019-03-22T00:08:54.711Z,8.13
2019-03-22T00:11:25.659Z,8.19
2019-03-22T00:13:56.154Z,8.20
2019-03-22T00:16:31.369Z,8.27
2019-03-22T00:19:04.979Z,8.17
2019-03-22T00:21:37.220Z,8.21
2019-03-22T00:24:10.383Z,8.19
2019-03-22T00:26:41.141Z,8.12
2019-03-22T00:29:13.457Z,8.06
2019-03-22T00:31:47.943Z,8.11
2019-03-22T00:34:22.075Z,8.00
2019-03-22T00:36:56.538Z,7.99
2019-03-22T00:39:29.088Z,8.03
2019-03-22T00:42:03.780Z,8.13
2019-03-22T00:44:34.891Z,8.14
2019-03-22T00:47:06.990Z,8.07
2019-03-22T00:49:38.330Z,8.06
2019-03-22T00:52:11.738Z,8.06
2019-03-22T00:54:44.338Z,8.04
2019-03-22T00:57:27.953Z,8.01
2019-03-22T00:59:50.818Z,8.06
2019-03-22T01:02:22.491Z,8.07
2019-03-22T01:04:54.365Z,8.05
2019-03-22T01:07:28.190Z,8.03
2019-03-22T01:10:01.668Z,8.07
2019-03-22T01:12:35.197Z,8.07
2019-03-22T01:15:07.965Z,8.01
2019-03-22T01:17:39.624Z,8.03
2019-03-22T01:20:11.709Z,8.00
2019-03-22T01:22:44.602Z,7.95
2019-03-22T01:25:21.299Z,7.93
2019-03-22T01:27:55.268Z,7.88
2019-03-22T01:30:26.053Z,7.96
2019-03-22T01:32:57.924Z,8.00
2019-03-22T01:35:28.686Z,8.04
2019-03-22T01:38:01.017Z,8.06
2019-03-22T01:40:32.509Z,8.12
2019-03-22T01:43:05.131Z,8.04
2019-03-22T01:45:36.331Z,7.94
2019-03-22T01:48:07.227Z,7.92
2019-03-22T01:50:38.054Z,7.93
2019-03-22T01:53:10.570Z,8.04
2019-03-22T01:55:42.641Z,7.95
2019-03-22T01:58:14.589Z,8.01
2019-03-22T02:00:46.688Z,8.09
2019-03-22T02:03:19.811Z,7.95
2019-03-22T02:05:51.143Z,7.95
2019-03-22T02:08:23.958Z,7.99
2019-03-22T02:10:54.460Z,8.01
2019-03-22T02:13:26.907Z,8.01
2019-03-22T02:15:59.994Z,7.98
2019-03-22T02:18:32.158Z,8.00
2019-03-22T02:21:06.980Z,7.94
2019-03-22T02:23:37.931Z,7.84
2019-03-22T02:26:11.276Z,7.83
2019-03-22T02:31:40.722Z,7.90
2019-03-22T02:34:11.620Z,7.80
2019-03-22T02:36:45.561Z,7.81
2019-03-22T02:39:19.710Z,7.81
2019-03-22T02:41:53.626Z,7.87
2019-03-22T02:44:24.379Z,7.95
2019-03-22T02:46:56.457Z,8.01
2019-03-22T02:49:28.499Z,8.07
2019-03-22T02:52:01.306Z,7.98
2019-03-22T02:54:33.707Z,7.90
2019-03-22T02:57:05.622Z,7.97
2019-03-22T02:59:36.473Z,7.95
2019-03-22T03:02:08.463Z,7.99
2019-03-22T03:04:39.523Z,8.03
2019-03-22T03:07:11.226Z,8.02
2019-03-22T03:09:43.622Z,7.94
2019-03-22T03:12:15.638Z,7.95
2019-03-22T03:14:48.771Z,7.95
2019-03-22T03:17:20.174Z,7.90
2019-03-22T03:19:50.678Z,7.98
2019-03-22T03:22:21.355Z,7.97
2019-03-22T03:24:52.758Z,7.92
2019-03-22T03:27:25.549Z,7.94
2019-03-22T03:29:56.005Z,7.90
2019-03-22T03:32:26.345Z,7.90
2019-03-22T03:34:56.958Z,7.91
2019-03-22T03:37:30.074Z,7.83
2019-03-22T03:40:00.879Z,7.83
2019-03-22T03:42:32.533Z,7.85
2019-03-22T03:45:04.385Z,7.87
2019-03-22T03:47:37.030Z,7.90
2019-03-22T03:50:08.780Z,7.84
2019-03-22T03:52:39.585Z,7.95
2019-03-22T03:55:10.636Z,7.93
2019-03-22T03:57:42.065Z,7.87
2019-03-22T04:00:13.790Z,7.90
2019-03-22T04:02:46.310Z,7.91
2019-03-22T04:05:18.330Z,7.94
2019-03-22T04:07:52.547Z,7.91
2019-03-22T04:10:24.814Z,7.87
2019-03-22T04:12:57.835Z,7.85
2019-03-22T04:15:29.614Z,7.82
2019-03-22T04:18:00.222Z,7.78
2019-03-22T04:20:32.718Z,7.76
2019-03-22T04:23:03.434Z,7.75
2019-03-22T04:25:34.139Z,7.81
2019-03-22T04:28:06.440Z,7.81
2019-03-22T04:30:38.735Z,7.81
2019-03-22T04:33:09.735Z,7.76
2019-03-22T04:35:42.520Z,7.64
2019-03-22T04:38:16.070Z,7.69
2019-03-22T04:40:48.451Z,7.65
2019-03-22T04:43:19.393Z,7.60
2019-03-22T04:45:51.578Z,7.60
2019-03-22T04:48:28.435Z,7.69
2019-03-22T04:51:03.349Z,7.68
2019-03-22T04:53:36.741Z,7.62
2019-03-22T04:56:12.292Z,7.59
2019-03-22T04:58:46.847Z,7.65
2019-03-22T05:01:21.749Z,7.69
2019-03-22T05:03:53.022Z,7.64
2019-03-22T05:06:24.969Z,7.58
2019-03-22T05:08:58.013Z,7.56
2019-03-22T05:11:30.102Z,7.57
2019-03-22T05:14:03.654Z,7.50
2019-03-22T05:16:37.894Z,7.57
2019-03-22T05:19:14.176Z,7.68
2019-03-22T05:21:46.200Z,7.66
2019-03-22T05:24:18.339Z,7.66
2019-03-22T05:26:52.880Z,7.64
2019-03-22T05:29:30.404Z,7.81
2019-03-22T05:31:59.013Z,8.02
2019-03-22T05:34:29.441Z,8.29
2019-03-22T05:37:00.990Z,8.48
2019-03-22T05:39:31.408Z,8.76
2019-03-22T05:42:01.665Z,9.00
2019-03-22T05:44:32.171Z,9.25
2019-03-22T05:47:04.099Z,9.43
2019-03-22T05:49:35.416Z,9.63
2019-03-22T05:52:05.961Z,10.00
2019-03-22T05:54:36.176Z,10.21
2019-03-22T05:57:13.189Z,10.52
2019-03-22T05:59:42.898Z,10.74
2019-03-22T06:02:11.844Z,10.84
2019-03-22T06:04:45.506Z,10.95
2019-03-22T06:07:17.861Z,11.22
2019-03-22T06:09:48.534Z,11.43
2019-03-22T06:12:19.011Z,11.68
2019-03-22T06:14:49.383Z,11.97
2019-03-22T06:17:19.441Z,12.35
2019-03-22T06:19:50.154Z,12.72
2019-03-22T06:22:20.646Z,12.85
2019-03-22T06:24:50.818Z,12.93
2019-03-22T06:27:22.297Z,13.10
2019-03-22T06:29:54.761Z,13.66
2019-03-22T06:32:29.952Z,13.66
2019-03-22T06:35:02.038Z,14.10
2019-03-22T06:37:34.369Z,14.48
2019-03-22T06:40:06.828Z,14.82
2019-03-22T06:42:37.684Z,15.24
2019-03-22T06:45:12.693Z,15.69
2019-03-22T06:47:44.998Z,15.87
2019-03-22T06:50:18.268Z,16.32
2019-03-22T06:52:54.440Z,16.69
2019-03-22T06:55:27.170Z,16.67
2019-03-22T06:57:59.755Z,16.67
2019-03-22T07:00:33.124Z,16.65
2019-03-22T07:03:06.549Z,16.81
2019-03-22T07:05:37.156Z,17.09
2019-03-22T07:08:09.367Z,17.09
2019-03-22T07:10:41.769Z,17.46
2019-03-22T07:13:12.123Z,17.43
2019-03-22T07:15:42.834Z,17.69
2019-03-22T07:18:13.473Z,18.05
2019-03-22T07:20:47.871Z,17.90
2019-03-22T07:23:18.469Z,17.79
2019-03-22T07:25:49.134Z,17.81
2019-03-22T07:28:19.527Z,18.12
2019-03-22T07:30:51.078Z,18.05
2019-03-22T07:33:23.919Z,18.29
2019-03-22T07:35:57.677Z,18.16
2019-03-22T07:38:28.367Z,18.77
2019-03-22T07:40:58.635Z,19.20
2019-03-22T07:43:30.353Z,19.23
2019-03-22T07:46:08.352Z,18.87
2019-03-22T07:48:38.982Z,19.38
2019-03-22T07:51:10.862Z,19.00
2019-03-22T07:53:43.031Z,18.13
2019-03-22T07:56:15.864Z,18.39
2019-03-22T07:58:46.092Z,18.63
2019-03-22T08:01:16.521Z,18.37
2019-03-22T08:03:46.849Z,17.46
2019-03-22T08:06:18.732Z,17.06
2019-03-22T08:08:49.294Z,17.33
2019-03-22T08:11:19.489Z,18.60
2019-03-22T08:13:49.629Z,18.91
2019-03-22T08:16:20.103Z,19.27
2019-03-22T08:18:50.663Z,19.55
2019-03-22T08:21:20.818Z,18.65
2019-03-22T08:23:51.436Z,19.58
2019-03-22T08:26:21.617Z,20.27
2019-03-22T08:28:51.866Z,20.47
2019-03-22T08:31:22.106Z,20.40
2019-03-22T08:33:52.480Z,20.74
2019-03-22T08:36:22.941Z,21.37
2019-03-22T08:38:53.245Z,21.15
2019-03-22T08:41:23.977Z,21.87
2019-03-22T08:43:54.549Z,21.38
2019-03-22T08:46:24.505Z,22.27
2019-03-22T08:48:55.688Z,23.03
2019-03-22T08:51:29.783Z,22.12
2019-03-22T08:54:00.420Z,21.81
2019-03-22T08:56:31.750Z,22.54
2019-03-22T08:59:03.139Z,22.77
2019-03-22T09:01:35.628Z,22.81
2019-03-22T09:04:05.667Z,23.43
2019-03-22T09:06:38.714Z,22.64
2019-03-22T09:09:10.668Z,22.68
2019-03-22T09:11:40.822Z,21.89
2019-03-22T09:14:11.026Z,22.70
2019-03-22T09:16:41.442Z,23.03
2019-03-22T09:19:12.882Z,23.37
2019-03-22T09:21:47.449Z,23.25
2019-03-22T09:24:19.472Z,21.22
2019-03-22T09:26:49.336Z,21.83
2019-03-22T09:29:19.581Z,19.45
2019-03-22T09:31:53.564Z,20.53
2019-03-22T09:34:33.102Z,20.46
2019-03-22T09:36:54.833Z,20.25
2019-03-22T09:39:30.764Z,21.62
2019-03-22T09:42:03.512Z,22.64
2019-03-22T09:44:42.826Z,23.15
2019-03-22T09:47:06.817Z,23.55
2019-03-22T09:49:38.576Z,23.76
2019-03-22T09:52:08.934Z,24.48
2019-03-22T09:54:39.033Z,24.31
2019-03-22T09:57:08.868Z,24.27
2019-03-22T09:59:39.225Z,24.66
2019-03-22T10:02:11.398Z,22.51
2019-03-22T10:04:42.123Z,23.29
2019-03-22T10:07:13.871Z,24.05
2019-03-22T10:09:43.910Z,25.13
2019-03-22T10:12:14.205Z,24.90
2019-03-22T10:14:47.462Z,25.06
2019-03-22T10:17:17.922Z,25.62
2019-03-22T10:19:49.289Z,25.84
2019-03-22T10:22:20.013Z,25.84
2019-03-22T10:24:51.521Z,26.34
2019-03-22T10:27:21.895Z,25.39
2019-03-22T10:29:52.186Z,23.63
2019-03-22T10:32:23.967Z,22.73
2019-03-22T10:34:55.901Z,22.77
2019-03-22T10:37:26.404Z,23.97
2019-03-22T10:39:56.496Z,24.93
2019-03-22T10:42:26.553Z,24.93
2019-03-22T10:44:57.921Z,24.98
2019-03-22T10:47:27.906Z,25.55
2019-03-22T10:49:57.939Z,26.27
2019-03-22T10:52:29.772Z,25.43
2019-03-22T10:55:17.501Z,25.60
2019-03-22T10:57:35.000Z,25.95
2019-03-22T11:00:10.251Z,24.30
2019-03-22T11:02:42.781Z,24.15
2019-03-22T11:05:13.485Z,24.42
2019-03-22T11:07:44.742Z,25.43
2019-03-22T11:10:15.004Z,26.13
2019-03-22T11:12:45.041Z,26.45
2019-03-22T11:15:15.781Z,26.10
2019-03-22T11:17:46.534Z,23.96
2019-03-22T11:20:17.690Z,24.13
2019-03-22T11:22:49.062Z,24.84
2019-03-22T11:25:19.532Z,24.00
2019-03-22T11:27:49.823Z,25.35
2019-03-22T11:30:21.972Z,25.83
2019-03-22T11:32:52.487Z,25.82
2019-03-22T11:35:22.784Z,25.79
2019-03-22T11:37:57.280Z,25.59
2019-03-22T11:40:29.415Z,25.21
2019-03-22T11:43:08.215Z,25.83
2019-03-22T11:45:32.053Z,25.65
2019-03-22T11:48:02.505Z,25.92
2019-03-22T11:50:34.713Z,26.39
2019-03-22T11:53:06.798Z,23.71
2019-03-22T11:55:37.961Z,24.84
2019-03-22T11:58:13.872Z,25.94
2019-03-22T12:00:45.914Z,26.53
2019-03-22T12:03:19.095Z,26.49
2019-03-22T12:05:50.264Z,26.43
2019-03-22T12:08:20.752Z,25.39
2019-03-22T12:10:50.998Z,24.38
2019-03-22T12:13:21.807Z,25.45
2019-03-22T12:15:54.743Z,25.53
2019-03-22T12:18:28.380Z,25.83
2019-03-22T12:21:00.233Z,26.36
2019-03-22T12:23:31.574Z,26.43
2019-03-22T12:26:02.277Z,26.27
2019-03-22T12:28:33.824Z,26.16
2019-03-22T12:31:04.379Z,26.25
2019-03-22T12:33:34.755Z,25.96
2019-03-22T12:36:08.973Z,25.96
2019-03-22T12:38:39.862Z,26.04
2019-03-22T12:41:11.090Z,24.84
2019-03-22T12:43:42.419Z,24.57
2019-03-22T12:46:12.321Z,25.13
2019-03-22T12:48:42.992Z,25.21
2019-03-22T12:51:14.821Z,24.54
2019-03-22T12:53:44.953Z,24.54
2019-03-22T12:56:15.978Z,24.87
2019-03-22T12:58:45.976Z,24.84
2019-03-22T13:01:18.751Z,25.51
2019-03-22T13:03:50.232Z,24.93
2019-03-22T13:06:21.882Z,24.49
2019-03-22T13:08:53.481Z,23.38
2019-03-22T13:11:23.669Z,23.70
2019-03-22T13:13:55.025Z,21.03
2019-03-22T13:16:25.303Z,20.73
2019-03-22T13:18:55.790Z,21.20
2019-03-22T13:21:26.017Z,21.05
2019-03-22T13:23:56.431Z,20.66
2019-03-22T13:26:26.760Z,20.51
2019-03-22T13:28:57.865Z,21.39
2019-03-22T13:31:28.221Z,21.85
2019-03-22T13:34:00.602Z,22.19
2019-03-22T13:36:31.098Z,22.20
2019-03-22T13:39:01.956Z,22.95
2019-03-22T13:41:34.644Z,23.94
2019-03-22T13:44:05.755Z,23.80
2019-03-22T13:46:40.281Z,21.25
2019-03-22T13:49:09.323Z,20.45
2019-03-22T13:51:40.935Z,20.90
2019-03-22T13:54:14.369Z,21.64
2019-03-22T13:56:44.687Z,22.05
2019-03-22T13:59:15.420Z,22.11
2019-03-22T14:01:47.077Z,20.24
2019-03-22T14:04:20.489Z,20.58
2019-03-22T14:06:51.021Z,20.69
2019-03-22T14:09:20.956Z,20.15
2019-03-22T14:11:55.267Z,21.27
2019-03-22T14:14:25.570Z,21.20
2019-03-22T14:16:55.704Z,22.15
2019-03-22T14:19:27.292Z,19.96
2019-03-22T14:21:57.799Z,19.53
2019-03-22T14:24:37.175Z,19.21
2019-03-22T14:27:13.846Z,19.28
2019-03-22T14:29:48.420Z,19.39
2019-03-22T14:32:20.611Z,19.21
2019-03-22T14:34:53.365Z,19.09
2019-03-22T14:37:25.421Z,19.00
2019-03-22T14:39:55.984Z,18.96
2019-03-22T14:42:26.569Z,18.98
2019-03-22T14:44:57.167Z,18.92
2019-03-22T14:47:27.207Z,18.97
2019-03-22T14:49:57.998Z,18.95
2019-03-22T14:52:28.009Z,18.97
2019-03-22T14:54:58.818Z,18.94
2019-03-22T14:57:29.309Z,18.89
2019-03-22T15:00:05.703Z,18.84
2019-03-22T15:02:38.836Z,18.82
2019-03-22T15:05:11.765Z,18.71
2019-03-22T15:07:43.575Z,18.76
2019-03-22T15:10:14.912Z,18.87
2019-03-22T15:12:46.523Z,18.95
2019-03-22T15:15:36.873Z,18.91
2019-03-22T15:18:26.916Z,18.86
2019-03-22T15:21:08.908Z,18.82
2019-03-22T15:23:43.489Z,18.67
2019-03-22T15:26:18.014Z,18.57
2019-03-22T15:29:00.407Z,18.53
2019-03-22T15:31:40.161Z,18.52
2019-03-22T15:34:18.136Z,18.49
2019-03-22T15:37:04.910Z,18.40
2019-03-22T15:39:40.946Z,18.38
2019-03-22T15:42:11.950Z,18.30
2019-03-22T15:44:47.740Z,18.25
2019-03-22T15:47:21.623Z,18.19
2019-03-22T15:49:53.036Z,18.10
2019-03-22T15:52:23.425Z,18.10
2019-03-22T15:54:53.921Z,18.05
2019-03-22T15:57:25.654Z,18.06
2019-03-22T16:00:10.127Z,17.97
2019-03-22T16:02:42.245Z,17.95
2019-03-22T16:05:15.125Z,17.89
2019-03-22T16:07:47.559Z,17.84
2019-03-22T16:10:19.601Z,17.79
2019-03-22T16:12:50.650Z,17.71
2019-03-22T16:15:22.889Z,17.63
2019-03-22T16:17:54.599Z,17.53
2019-03-22T16:20:25.142Z,17.53
2019-03-22T16:22:57.423Z,17.51
2019-03-22T16:25:28.782Z,17.44
2019-03-22T16:28:00.235Z,17.41
2019-03-22T16:30:30.866Z,17.34
2019-03-22T16:33:01.287Z,17.33
2019-03-22T16:35:32.762Z,17.27
2019-03-22T16:38:05.751Z,17.17
2019-03-22T16:40:36.845Z,17.01
2019-03-22T16:43:07.717Z,16.86
2019-03-22T16:45:54.062Z,16.84
2019-03-22T16:48:37.342Z,16.72
2019-03-22T16:51:23.920Z,16.62
2019-03-22T16:54:09.790Z,16.52
2019-03-22T16:56:57.388Z,16.43
2019-03-22T16:59:41.117Z,16.28
2019-03-22T17:02:14.759Z,16.32
2019-03-22T17:05:06.077Z,16.21
2019-03-22T17:07:41.043Z,16.21
2019-03-22T17:10:24.584Z,16.08
2019-03-22T17:13:25.954Z,15.83
2019-03-22T17:16:04.999Z,15.95
2019-03-22T17:18:42.358Z,15.92
2019-03-22T17:21:23.737Z,15.77
2019-03-22T17:24:02.793Z,15.67
2019-03-22T17:26:37.240Z,15.67
2019-03-22T17:29:18.614Z,15.77
2019-03-22T17:31:53.441Z,15.63
2019-03-22T17:34:36.438Z,15.59
2019-03-22T17:37:19.817Z,15.35
2019-03-22T17:39:57.109Z,15.17
2019-03-22T17:42:42.385Z,15.15
2019-03-22T17:45:28.156Z,14.91
2019-03-22T17:48:22.241Z,14.78
2019-03-22T17:51:06.301Z,14.69
2019-03-22T17:53:51.273Z,14.59
2019-03-22T17:56:36.301Z,14.49
2019-03-22T17:59:27.150Z,14.39
2019-03-22T18:02:07.459Z,14.33
2019-03-22T18:05:01.486Z,14.28
2019-03-22T18:07:44.094Z,14.19
2019-03-22T18:10:22.192Z,14.11
2019-03-22T18:13:13.831Z,14.11
2019-03-22T18:15:54.440Z,14.00
2019-03-22T18:18:35.410Z,13.91
2019-03-22T18:21:30.157Z,13.81
2019-03-22T18:24:07.367Z,13.69
2019-03-22T18:26:44.112Z,13.70
2019-03-22T18:29:30.581Z,13.69
2019-03-22T18:32:05.785Z,13.74
2019-03-22T18:34:41.968Z,13.66
2019-03-22T18:37:14.582Z,13.55
2019-03-22T18:39:45.540Z,13.50
2019-03-22T18:42:16.805Z,13.60
2019-03-22T18:44:48.860Z,13.46
2019-03-22T18:47:20.937Z,13.40
2019-03-22T18:49:51.648Z,13.28
2019-03-22T18:52:25.589Z,13.22
2019-03-22T18:54:58.733Z,13.15
2019-03-22T18:57:42.345Z,13.10
2019-03-22T19:00:16.293Z,13.07
2019-03-22T19:02:48.823Z,12.95
2019-03-22T19:05:19.734Z,12.87
2019-03-22T19:07:57.891Z,12.83
2019-03-22T19:10:29.757Z,12.77
2019-03-22T19:13:01.984Z,12.60
2019-03-22T19:15:33.671Z,12.46
2019-03-22T19:18:07.126Z,12.43
2019-03-22T19:20:39.547Z,12.40
2019-03-22T19:23:12.779Z,12.38
2019-03-22T19:25:45.750Z,12.44
2019-03-22T19:28:16.822Z,12.31
2019-03-22T19:30:48.435Z,12.25
2019-03-22T19:33:20.385Z,12.20
2019-03-22T19:35:54.617Z,12.16
2019-03-22T19:38:29.483Z,12.08
2019-03-22T19:41:01.870Z,11.99
2019-03-22T19:43:33.343Z,11.94
2019-03-22T19:46:06.870Z,11.87
2019-03-22T19:48:38.372Z,11.81
2019-03-22T19:51:11.057Z,11.84
2019-03-22T19:53:43.351Z,11.80
2019-03-22T19:56:14.807Z,11.79
2019-03-22T19:58:46.120Z,11.77
2019-03-22T20:01:17.538Z,11.74
2019-03-22T20:03:50.083Z,11.68
2019-03-22T20:06:21.967Z,11.60
2019-03-22T20:08:55.932Z,11.57
2019-03-22T20:11:26.903Z,11.60
2019-03-22T20:13:58.936Z,11.59
2019-03-22T20:16:35.454Z,11.54
2019-03-22T20:22:24.314Z,11.46
2019-03-22T20:24:58.598Z,11.38
2019-03-22T20:27:30.842Z,11.29
2019-03-22T20:30:03.304Z,11.28
2019-03-22T20:32:35.116Z,11.22
2019-03-22T20:35:16.428Z,11.20
2019-03-22T20:37:55.535Z,11.12
2019-03-22T20:40:38.757Z,11.10
2019-03-22T20:43:13.835Z,11.06
2019-03-22T20:45:52.163Z,10.92
2019-03-22T20:48:37.839Z,10.91
2019-03-22T20:51:12.133Z,10.87
2019-03-22T20:53:45.598Z,10.75
2019-03-22T20:56:26.173Z,10.71
2019-03-22T20:59:16.682Z,10.65
2019-03-22T21:01:52.252Z,10.59
2019-03-22T21:04:33.993Z,10.50
2019-03-22T21:07:29.157Z,10.57
2019-03-22T21:10:00.411Z,10.62
2019-03-22T21:12:32.124Z,10.61
2019-03-22T21:15:05.911Z,10.58
2019-03-22T21:17:40.177Z,10.48
2019-03-22T21:20:13.427Z,10.41
2019-03-22T21:22:44.332Z,10.29
2019-03-22T21:25:18.393Z,10.26
2019-03-22T21:27:52.278Z,10.22
2019-03-22T21:30:47.085Z,10.24
2019-03-22T21:33:22.521Z,10.28
2019-03-22T21:35:55.358Z,10.20
2019-03-22T21:38:28.934Z,9.97
2019-03-22T21:41:00.077Z,9.83
2019-03-22T21:44:02.943Z,9.86
2019-03-22T21:47:24.839Z,9.77
2019-03-22T21:50:24.349Z,9.72
2019-03-22T21:53:04.601Z,9.84
2019-03-22T21:55:58.045Z,9.94
2019-03-22T21:58:50.315Z,9.94
2019-03-22T22:01:34.868Z,9.77
2019-03-22T22:04:12.025Z,9.92
2019-03-22T22:06:50.590Z,9.94
2019-03-22T22:09:25.278Z,9.94
2019-03-22T22:12:26.400Z,9.97
2019-03-22T22:15:23.167Z,9.92
2019-03-22T22:18:04.154Z,9.98
2019-03-22T22:20:45.417Z,9.91
2019-03-22T22:23:34.401Z,9.88
2019-03-22T22:26:25.649Z,9.94
2019-03-22T22:29:05.897Z,9.98
2019-03-22T22:31:46.074Z,10.04
2019-03-22T22:34:21.597Z,9.97
2019-03-22T22:36:57.778Z,9.98
2019-03-22T22:39:33.498Z,9.92
2019-03-22T22:42:08.233Z,9.97
2019-03-22T22:44:40.615Z,10.00
2019-03-22T22:47:19.224Z,9.89
2019-03-22T22:50:02.986Z,9.71
2019-03-22T22:52:43.679Z,9.55
2019-03-22T22:55:29.216Z,9.62
2019-03-22T22:58:12.148Z,9.64
2019-03-22T23:00:56.083Z,9.67
2019-03-22T23:03:39.485Z,9.69
2019-03-22T23:06:13.601Z,9.63
2019-03-22T23:08:45.127Z,9.62
2019-03-22T23:11:21.083Z,9.62
2019-03-22T23:13:53.862Z,9.70
2019-03-22T23:16:32.615Z,9.65
2019-03-22T23:19:17.769Z,9.65
2019-03-22T23:21:54.227Z,9.57
2019-03-22T23:24:27.116Z,9.58
2019-03-22T23:27:10.504Z,9.50
2019-03-22T23:29:56.742Z,9.44
2019-03-22T23:32:28.709Z,9.50
2019-03-22T23:35:00.366Z,9.51
2019-03-22T23:37:33.999Z,9.58
2019-03-22T23:40:06.830Z,9.51
2019-03-22T23:42:39.116Z,9.50
2019-03-22T23:45:15.512Z,9.54
2019-03-22T23:47:58.097Z,9.63
2019-03-22T23:50:29.617Z,9.54
2019-03-22T23:53:00.571Z,9.46
2019-03-22T23:55:32.088Z,9.59
2019-03-22T23:58:06.392Z,9.51
